sensor_id;sensor_type;location;lat;lon;timestamp;temperature;humidity
33903;DHT22;20194;50.950;5.346;2023-02-28T00:00:23;3.40;1.00
33903;DHT22;20194;50.950;5.346;2023-02-28T00:02:49;3.50;1.00
33903;DHT22;20194;50.950;5.346;2023-02-28T00:05:17;3.50;1.00
33903;DHT22;20194;50.950;5.346;2023-02-28T00:07:43;3.50;1.00
33903;DHT22;20194;50.950;5.346;2023-02-28T00:10:12;3.60;1.00
33903;DHT22;20194;50.950;5.346;2023-02-28T00:12:39;3.60;1.00
33903;DHT22;20194;50.950;5.346;2023-02-28T00:15:09;3.50;1.00
33903;DHT22;20194;50.950;5.346;2023-02-28T00:17:36;3.20;1.00
33903;DHT22;20194;50.950;5.346;2023-02-28T00:20:02;3.20;1.00
33903;DHT22;20194;50.950;5.346;2023-02-28T00:22:28;3.10;1.00
33903;DHT22;20194;50.950;5.346;2023-02-28T00:24:54;3.20;1.00
33903;DHT22;20194;50.950;5.346;2023-02-28T00:27:20;3.40;1.00
33903;DHT22;20194;50.950;5.346;2023-02-28T00:29:46;3.20;1.00
33903;DHT22;20194;50.950;5.346;2023-02-28T00:32:12;3.10;1.00
33903;DHT22;20194;50.950;5.346;2023-02-28T00:34:38;3.20;1.00
33903;DHT22;20194;50.950;5.346;2023-02-28T00:37:09;3.20;1.00
33903;DHT22;20194;50.950;5.346;2023-02-28T00:39:36;3.00;1.00
33903;DHT22;20194;50.950;5.346;2023-02-28T00:42:02;3.10;1.00
33903;DHT22;20194;50.950;5.346;2023-02-28T00:44:29;3.00;1.00
33903;DHT22;20194;50.950;5.346;2023-02-28T00:46:54;3.10;1.00
33903;DHT22;20194;50.950;5.346;2023-02-28T00:49:22;3.00;1.00
33903;DHT22;20194;50.950;5.346;2023-02-28T00:51:48;3.00;1.00
33903;DHT22;20194;50.950;5.346;2023-02-28T00:54:14;2.90;1.00
33903;DHT22;20194;50.950;5.346;2023-02-28T00:56:40;2.80;1.00
33903;DHT22;20194;50.950;5.346;2023-02-28T00:59:07;2.70;1.00
33903;DHT22;20194;50.950;5.346;2023-02-28T01:01:34;2.60;1.00
33903;DHT22;20194;50.950;5.346;2023-02-28T01:03:59;2.50;1.00
33903;DHT22;20194;50.950;5.346;2023-02-28T01:06:25;2.50;1.00
33903;DHT22;20194;50.950;5.346;2023-02-28T01:08:51;2.40;1.00
33903;DHT22;20194;50.950;5.346;2023-02-28T01:11:17;2.50;1.00
33903;DHT22;20194;50.950;5.346;2023-02-28T01:13:44;2.50;1.00
33903;DHT22;20194;50.950;5.346;2023-02-28T01:16:10;2.50;1.00
33903;DHT22;20194;50.950;5.346;2023-02-28T01:18:36;2.60;1.00
33903;DHT22;20194;50.950;5.346;2023-02-28T01:21:07;2.50;1.00
33903;DHT22;20194;50.950;5.346;2023-02-28T01:23:33;2.30;1.00
33903;DHT22;20194;50.950;5.346;2023-02-28T01:26:12;2.30;1.00
33903;DHT22;20194;50.950;5.346;2023-02-28T01:28:37;2.40;1.00
33903;DHT22;20194;50.950;5.346;2023-02-28T01:31:03;2.40;1.00
33903;DHT22;20194;50.950;5.346;2023-02-28T01:33:29;2.50;1.00
33903;DHT22;20194;50.950;5.346;2023-02-28T01:35:59;2.50;1.00
33903;DHT22;20194;50.950;5.346;2023-02-28T01:38:25;2.60;1.00
33903;DHT22;20194;50.950;5.346;2023-02-28T01:40:51;2.70;1.00
33903;DHT22;20194;50.950;5.346;2023-02-28T01:43:29;2.50;1.00
33903;DHT22;20194;50.950;5.346;2023-02-28T01:45:56;2.60;1.00
33903;DHT22;20194;50.950;5.346;2023-02-28T01:48:30;2.60;1.00
33903;DHT22;20194;50.950;5.346;2023-02-28T01:50:59;2.60;1.00
33903;DHT22;20194;50.950;5.346;2023-02-28T01:53:35;2.70;1.00
33903;DHT22;20194;50.950;5.346;2023-02-28T01:56:06;2.80;1.00
33903;DHT22;20194;50.950;5.346;2023-02-28T01:58:33;2.80;1.00
33903;DHT22;20194;50.950;5.346;2023-02-28T02:00:59;2.70;1.00
33903;DHT22;20194;50.950;5.346;2023-02-28T02:03:25;2.70;1.00
33903;DHT22;20194;50.950;5.346;2023-02-28T02:05:51;2.40;1.00
33903;DHT22;20194;50.950;5.346;2023-02-28T02:08:25;2.50;1.00
33903;DHT22;20194;50.950;5.346;2023-02-28T02:10:56;2.50;1.00
33903;DHT22;20194;50.950;5.346;2023-02-28T02:13:38;2.40;1.00
33903;DHT22;20194;50.950;5.346;2023-02-28T02:18:53;2.30;1.00
33903;DHT22;20194;50.950;5.346;2023-02-28T02:33:09;2.00;1.00
33903;DHT22;20194;50.950;5.346;2023-02-28T02:35:54;2.00;1.00
33903;DHT22;20194;50.950;5.346;2023-02-28T02:43:53;1.90;1.00
33903;DHT22;20194;50.950;5.346;2023-02-28T02:46:38;2.00;1.00
33903;DHT22;20194;50.950;5.346;2023-02-28T02:49:08;2.00;1.00
33903;DHT22;20194;50.950;5.346;2023-02-28T02:51:36;2.00;1.00
33903;DHT22;20194;50.950;5.346;2023-02-28T02:54:25;2.10;1.00
33903;DHT22;20194;50.950;5.346;2023-02-28T02:57:00;2.20;1.00
33903;DHT22;20194;50.950;5.346;2023-02-28T02:59:28;2.20;1.00
33903;DHT22;20194;50.950;5.346;2023-02-28T03:02:06;2.10;1.00
33903;DHT22;20194;50.950;5.346;2023-02-28T03:04:38;2.10;1.00
33903;DHT22;20194;50.950;5.346;2023-02-28T03:07:05;2.10;1.00
33903;DHT22;20194;50.950;5.346;2023-02-28T03:09:33;2.20;1.00
33903;DHT22;20194;50.950;5.346;2023-02-28T03:12:01;2.10;1.00
33903;DHT22;20194;50.950;5.346;2023-02-28T03:14:36;2.20;1.00
33903;DHT22;20194;50.950;5.346;2023-02-28T03:20:03;2.10;1.00
33903;DHT22;20194;50.950;5.346;2023-02-28T03:28:30;2.10;1.00
33903;DHT22;20194;50.950;5.346;2023-02-28T03:31:15;2.10;1.00
33903;DHT22;20194;50.950;5.346;2023-02-28T03:33:47;2.10;1.00
33903;DHT22;20194;50.950;5.346;2023-02-28T03:36:26;2.00;1.00
33903;DHT22;20194;50.950;5.346;2023-02-28T03:38:58;2.10;1.00
33903;DHT22;20194;50.950;5.346;2023-02-28T03:41:50;2.20;1.00
33903;DHT22;20194;50.950;5.346;2023-02-28T03:44:24;2.10;1.00
33903;DHT22;20194;50.950;5.346;2023-02-28T03:47:04;2.10;1.00
33903;DHT22;20194;50.950;5.346;2023-02-28T03:49:36;2.20;1.00
33903;DHT22;20194;50.950;5.346;2023-02-28T03:52:06;2.20;1.00
33903;DHT22;20194;50.950;5.346;2023-02-28T03:54:38;2.00;1.00
33903;DHT22;20194;50.950;5.346;2023-02-28T03:57:27;1.90;1.00
33903;DHT22;20194;50.950;5.346;2023-02-28T04:02:33;1.90;1.00
33903;DHT22;20194;50.950;5.346;2023-02-28T04:05:00;1.90;1.00
33903;DHT22;20194;50.950;5.346;2023-02-28T04:07:29;1.90;1.00
33903;DHT22;20194;50.950;5.346;2023-02-28T04:10:03;2.00;1.00
33903;DHT22;20194;50.950;5.346;2023-02-28T04:12:30;2.00;1.00
33903;DHT22;20194;50.950;5.346;2023-02-28T04:14:55;1.80;1.00
33903;DHT22;20194;50.950;5.346;2023-02-28T04:17:21;1.60;2.80
33903;DHT22;20194;50.950;5.346;2023-02-28T04:19:47;1.60;3.80
33903;DHT22;20194;50.950;5.346;2023-02-28T04:22:12;1.70;3.00
33903;DHT22;20194;50.950;5.346;2023-02-28T04:24:39;1.70;1.70
33903;DHT22;20194;50.950;5.346;2023-02-28T04:27:08;1.60;3.80
33903;DHT22;20194;50.950;5.346;2023-02-28T04:29:34;1.70;3.10
33903;DHT22;20194;50.950;5.346;2023-02-28T04:32:01;1.70;1.20
33903;DHT22;20194;50.950;5.346;2023-02-28T04:34:29;1.70;1.00
33903;DHT22;20194;50.950;5.346;2023-02-28T04:36:55;1.60;1.10
33903;DHT22;20194;50.950;5.346;2023-02-28T04:39:22;1.70;1.30
33903;DHT22;20194;50.950;5.346;2023-02-28T04:41:48;1.70;1.00
33903;DHT22;20194;50.950;5.346;2023-02-28T04:44:14;1.70;1.00
33903;DHT22;20194;50.950;5.346;2023-02-28T04:46:40;1.60;1.00
33903;DHT22;20194;50.950;5.346;2023-02-28T04:49:06;1.50;3.20
33903;DHT22;20194;50.950;5.346;2023-02-28T04:51:32;1.50;3.30
33903;DHT22;20194;50.950;5.346;2023-02-28T04:53:57;1.50;3.60
33903;DHT22;20194;50.950;5.346;2023-02-28T04:56:23;1.40;6.70
33903;DHT22;20194;50.950;5.346;2023-02-28T04:58:49;1.30;6.30
33903;DHT22;20194;50.950;5.346;2023-02-28T05:03:49;1.60;4.30
33903;DHT22;20194;50.950;5.346;2023-02-28T05:06:15;1.60;1.00
33903;DHT22;20194;50.950;5.346;2023-02-28T05:08:41;1.80;1.00
33903;DHT22;20194;50.950;5.346;2023-02-28T05:11:17;1.80;1.00
33903;DHT22;20194;50.950;5.346;2023-02-28T05:13:44;1.80;1.00
33903;DHT22;20194;50.950;5.346;2023-02-28T05:16:10;1.80;1.00
33903;DHT22;20194;50.950;5.346;2023-02-28T05:18:36;1.70;1.00
33903;DHT22;20194;50.950;5.346;2023-02-28T05:21:02;1.60;1.00
33903;DHT22;20194;50.950;5.346;2023-02-28T05:23:28;1.70;1.00
33903;DHT22;20194;50.950;5.346;2023-02-28T05:25:54;1.90;1.00
33903;DHT22;20194;50.950;5.346;2023-02-28T05:28:20;1.80;1.00
33903;DHT22;20194;50.950;5.346;2023-02-28T05:30:47;1.90;1.00
33903;DHT22;20194;50.950;5.346;2023-02-28T05:33:13;1.80;1.00
33903;DHT22;20194;50.950;5.346;2023-02-28T05:35:40;1.80;1.00
33903;DHT22;20194;50.950;5.346;2023-02-28T05:38:06;1.60;1.00
33903;DHT22;20194;50.950;5.346;2023-02-28T05:40:31;1.60;1.00
33903;DHT22;20194;50.950;5.346;2023-02-28T05:42:57;1.40;1.60
33903;DHT22;20194;50.950;5.346;2023-02-28T05:45:23;1.50;2.30
33903;DHT22;20194;50.950;5.346;2023-02-28T05:47:52;1.40;1.00
33903;DHT22;20194;50.950;5.346;2023-02-28T05:50:18;1.30;4.70
33903;DHT22;20194;50.950;5.346;2023-02-28T05:52:44;1.50;5.40
33903;DHT22;20194;50.950;5.346;2023-02-28T05:55:10;1.60;1.60
33903;DHT22;20194;50.950;5.346;2023-02-28T05:57:35;1.50;1.00
33903;DHT22;20194;50.950;5.346;2023-02-28T06:00:02;1.50;1.00
33903;DHT22;20194;50.950;5.346;2023-02-28T06:02:28;1.40;1.60
33903;DHT22;20194;50.950;5.346;2023-02-28T06:04:54;1.50;1.00
33903;DHT22;20194;50.950;5.346;2023-02-28T06:07:20;1.60;1.00
33903;DHT22;20194;50.950;5.346;2023-02-28T06:09:47;1.60;1.00
33903;DHT22;20194;50.950;5.346;2023-02-28T06:12:13;1.60;1.00
33903;DHT22;20194;50.950;5.346;2023-02-28T06:14:39;1.50;1.00
33903;DHT22;20194;50.950;5.346;2023-02-28T06:17:05;1.50;1.80
33903;DHT22;20194;50.950;5.346;2023-02-28T06:19:30;1.60;1.00
33903;DHT22;20194;50.950;5.346;2023-02-28T06:21:56;1.70;1.00
33903;DHT22;20194;50.950;5.346;2023-02-28T06:24:24;1.80;1.00
33903;DHT22;20194;50.950;5.346;2023-02-28T06:26:50;1.70;1.00
33903;DHT22;20194;50.950;5.346;2023-02-28T06:29:17;1.70;1.00
33903;DHT22;20194;50.950;5.346;2023-02-28T06:31:44;1.50;1.00
33903;DHT22;20194;50.950;5.346;2023-02-28T06:34:11;1.50;1.90
33903;DHT22;20194;50.950;5.346;2023-02-28T06:36:38;1.50;1.00
33903;DHT22;20194;50.950;5.346;2023-02-28T06:39:04;1.50;1.00
33903;DHT22;20194;50.950;5.346;2023-02-28T06:41:30;1.50;1.00
33903;DHT22;20194;50.950;5.346;2023-02-28T06:43:56;1.30;1.20
33903;DHT22;20194;50.950;5.346;2023-02-28T06:46:22;1.40;3.40
33903;DHT22;20194;50.950;5.346;2023-02-28T06:48:48;1.50;2.00
33903;DHT22;20194;50.950;5.346;2023-02-28T06:51:18;1.50;1.00
33903;DHT22;20194;50.950;5.346;2023-02-28T06:53:45;1.50;1.00
33903;DHT22;20194;50.950;5.346;2023-02-28T06:56:13;1.50;1.00
33903;DHT22;20194;50.950;5.346;2023-02-28T06:58:40;1.60;1.00
33903;DHT22;20194;50.950;5.346;2023-02-28T07:01:07;1.60;1.00
33903;DHT22;20194;50.950;5.346;2023-02-28T07:03:34;1.60;1.00
33903;DHT22;20194;50.950;5.346;2023-02-28T07:06:00;1.60;1.00
33903;DHT22;20194;50.950;5.346;2023-02-28T07:08:27;1.60;1.00
33903;DHT22;20194;50.950;5.346;2023-02-28T07:10:56;1.50;1.00
33903;DHT22;20194;50.950;5.346;2023-02-28T07:13:22;1.50;1.00
33903;DHT22;20194;50.950;5.346;2023-02-28T07:15:58;1.40;1.00
33903;DHT22;20194;50.950;5.346;2023-02-28T07:18:25;1.40;1.00
33903;DHT22;20194;50.950;5.346;2023-02-28T07:20:51;1.50;1.00
33903;DHT22;20194;50.950;5.346;2023-02-28T07:23:16;1.50;1.00
33903;DHT22;20194;50.950;5.346;2023-02-28T07:25:42;1.40;1.00
33903;DHT22;20194;50.950;5.346;2023-02-28T07:28:09;1.30;2.00
33903;DHT22;20194;50.950;5.346;2023-02-28T07:30:34;1.30;3.00
33903;DHT22;20194;50.950;5.346;2023-02-28T07:33:00;1.40;2.10
33903;DHT22;20194;50.950;5.346;2023-02-28T07:35:26;1.50;1.00
33903;DHT22;20194;50.950;5.346;2023-02-28T07:37:51;1.40;1.00
33903;DHT22;20194;50.950;5.346;2023-02-28T07:40:17;1.40;1.00
33903;DHT22;20194;50.950;5.346;2023-02-28T07:42:43;1.30;1.00
33903;DHT22;20194;50.950;5.346;2023-02-28T07:45:10;1.40;1.00
33903;DHT22;20194;50.950;5.346;2023-02-28T07:47:38;1.40;2.40
33903;DHT22;20194;50.950;5.346;2023-02-28T07:50:05;1.50;1.00
33903;DHT22;20194;50.950;5.346;2023-02-28T07:52:31;1.40;1.10
33903;DHT22;20194;50.950;5.346;2023-02-28T07:54:57;1.60;1.00
33903;DHT22;20194;50.950;5.346;2023-02-28T07:57:23;1.60;1.00
33903;DHT22;20194;50.950;5.346;2023-02-28T07:59:49;1.70;1.00
33903;DHT22;20194;50.950;5.346;2023-02-28T08:02:16;1.90;1.00
33903;DHT22;20194;50.950;5.346;2023-02-28T08:04:42;1.90;1.00
33903;DHT22;20194;50.950;5.346;2023-02-28T08:07:08;2.10;1.00
33903;DHT22;20194;50.950;5.346;2023-02-28T08:09:39;2.20;1.00
33903;DHT22;20194;50.950;5.346;2023-02-28T08:12:05;2.30;1.00
33903;DHT22;20194;50.950;5.346;2023-02-28T08:14:31;2.40;1.00
33903;DHT22;20194;50.950;5.346;2023-02-28T08:16:57;2.50;1.00
33903;DHT22;20194;50.950;5.346;2023-02-28T08:19:23;2.60;1.00
33903;DHT22;20194;50.950;5.346;2023-02-28T08:21:48;2.70;1.00
33903;DHT22;20194;50.950;5.346;2023-02-28T08:24:14;2.60;1.00
33903;DHT22;20194;50.950;5.346;2023-02-28T08:26:40;2.60;1.00
33903;DHT22;20194;50.950;5.346;2023-02-28T08:29:06;2.70;1.00
33903;DHT22;20194;50.950;5.346;2023-02-28T08:31:32;2.80;1.00
33903;DHT22;20194;50.950;5.346;2023-02-28T08:33:58;2.70;1.00
33903;DHT22;20194;50.950;5.346;2023-02-28T08:36:25;2.70;1.00
33903;DHT22;20194;50.950;5.346;2023-02-28T08:38:51;2.90;1.00
33903;DHT22;20194;50.950;5.346;2023-02-28T08:41:17;3.00;1.00
33903;DHT22;20194;50.950;5.346;2023-02-28T08:43:43;3.30;1.00
33903;DHT22;20194;50.950;5.346;2023-02-28T08:46:12;3.50;1.00
33903;DHT22;20194;50.950;5.346;2023-02-28T08:48:39;3.80;1.00
33903;DHT22;20194;50.950;5.346;2023-02-28T08:51:06;4.10;1.00
33903;DHT22;20194;50.950;5.346;2023-02-28T08:53:33;4.30;1.00
33903;DHT22;20194;50.950;5.346;2023-02-28T08:56:07;4.60;1.00
33903;DHT22;20194;50.950;5.346;2023-02-28T08:58:34;4.70;1.00
33903;DHT22;20194;50.950;5.346;2023-02-28T09:01:00;4.80;1.00
33903;DHT22;20194;50.950;5.346;2023-02-28T09:03:26;4.70;1.00
33903;DHT22;20194;50.950;5.346;2023-02-28T09:05:57;4.90;1.00
33903;DHT22;20194;50.950;5.346;2023-02-28T09:08:24;5.20;1.00
33903;DHT22;20194;50.950;5.346;2023-02-28T09:10:50;5.20;1.00
33903;DHT22;20194;50.950;5.346;2023-02-28T09:13:16;5.30;99.90
33903;DHT22;20194;50.950;5.346;2023-02-28T09:15:42;5.40;99.90
33903;DHT22;20194;50.950;5.346;2023-02-28T09:18:08;5.50;99.90
33903;DHT22;20194;50.950;5.346;2023-02-28T09:20:37;5.70;99.90
33903;DHT22;20194;50.950;5.346;2023-02-28T09:23:03;5.90;1.00
33903;DHT22;20194;50.950;5.346;2023-02-28T09:25:28;6.20;90.30
33903;DHT22;20194;50.950;5.346;2023-02-28T09:27:54;6.30;99.90
33903;DHT22;20194;50.950;5.346;2023-02-28T09:30:20;6.20;1.00
33903;DHT22;20194;50.950;5.346;2023-02-28T09:32:46;6.20;99.90
33903;DHT22;20194;50.950;5.346;2023-02-28T09:35:18;6.20;99.90
33903;DHT22;20194;50.950;5.346;2023-02-28T09:37:45;6.20;1.00
33903;DHT22;20194;50.950;5.346;2023-02-28T09:40:11;6.10;51.30
33903;DHT22;20194;50.950;5.346;2023-02-28T09:42:37;6.10;1.00
33903;DHT22;20194;50.950;5.346;2023-02-28T09:45:18;6.10;1.00
33903;DHT22;20194;50.950;5.346;2023-02-28T09:47:48;6.30;1.00
33903;DHT22;20194;50.950;5.346;2023-02-28T09:50:36;6.20;99.90
33903;DHT22;20194;50.950;5.346;2023-02-28T09:53:25;6.30;99.90
33903;DHT22;20194;50.950;5.346;2023-02-28T09:55:55;6.30;99.90
33903;DHT22;20194;50.950;5.346;2023-02-28T09:58:32;6.50;1.00
33903;DHT22;20194;50.950;5.346;2023-02-28T10:01:06;6.70;1.00
33903;DHT22;20194;50.950;5.346;2023-02-28T10:06:20;6.70;99.90
33903;DHT22;20194;50.950;5.346;2023-02-28T10:11:33;6.40;1.00
33903;DHT22;20194;50.950;5.346;2023-02-28T10:16:39;6.60;99.90
33903;DHT22;20194;50.950;5.346;2023-02-28T10:19:13;6.70;99.50
33903;DHT22;20194;50.950;5.346;2023-02-28T10:21:47;6.80;99.90
33903;DHT22;20194;50.950;5.346;2023-02-28T10:29:36;6.40;99.90
33903;DHT22;20194;50.950;5.346;2023-02-28T10:32:05;6.50;1.00
33903;DHT22;20194;50.950;5.346;2023-02-28T10:34:30;6.70;1.00
33903;DHT22;20194;50.950;5.346;2023-02-28T10:36:56;6.80;99.90
33903;DHT22;20194;50.950;5.346;2023-02-28T10:39:43;6.60;1.00
33903;DHT22;20194;50.950;5.346;2023-02-28T10:42:26;6.80;1.00
33903;DHT22;20194;50.950;5.346;2023-02-28T10:47:53;7.00;1.00
33903;DHT22;20194;50.950;5.346;2023-02-28T10:50:43;6.60;1.00
33903;DHT22;20194;50.950;5.346;2023-02-28T10:56:04;6.60;1.00
33903;DHT22;20194;50.950;5.346;2023-02-28T10:58:51;6.60;1.00
33903;DHT22;20194;50.950;5.346;2023-02-28T11:01:34;6.70;1.00
33903;DHT22;20194;50.950;5.346;2023-02-28T11:04:01;6.60;1.00
33903;DHT22;20194;50.950;5.346;2023-02-28T11:06:33;6.40;99.90
33903;DHT22;20194;50.950;5.346;2023-02-28T11:09:06;6.30;1.00
33903;DHT22;20194;50.950;5.346;2023-02-28T11:11:45;6.50;99.90
33903;DHT22;20194;50.950;5.346;2023-02-28T11:14:27;6.60;99.90
33903;DHT22;20194;50.950;5.346;2023-02-28T11:16:54;6.50;99.90
33903;DHT22;20194;50.950;5.346;2023-02-28T11:19:25;6.40;99.90
33903;DHT22;20194;50.950;5.346;2023-02-28T11:21:57;6.50;79.00
33903;DHT22;20194;50.950;5.346;2023-02-28T11:24:30;6.70;28.80
33903;DHT22;20194;50.950;5.346;2023-02-28T11:26:58;6.80;99.90
33903;DHT22;20194;50.950;5.346;2023-02-28T11:29:27;6.70;99.90
33903;DHT22;20194;50.950;5.346;2023-02-28T11:32:23;6.80;99.90
33903;DHT22;20194;50.950;5.346;2023-02-28T11:37:38;7.00;1.00
33903;DHT22;20194;50.950;5.346;2023-02-28T11:40:17;6.90;1.00
33903;DHT22;20194;50.950;5.346;2023-02-28T11:43:06;6.90;99.90
33903;DHT22;20194;50.950;5.346;2023-02-28T11:45:57;6.90;1.00
33903;DHT22;20194;50.950;5.346;2023-02-28T11:51:15;6.80;99.90
33903;DHT22;20194;50.950;5.346;2023-02-28T12:07:13;6.80;1.00
33903;DHT22;20194;50.950;5.346;2023-02-28T12:12:39;6.60;99.90
33903;DHT22;20194;50.950;5.346;2023-02-28T12:15:33;7.10;1.00
33903;DHT22;20194;50.950;5.346;2023-02-28T12:20:42;6.90;81.70
33903;DHT22;20194;50.950;5.346;2023-02-28T12:23:48;6.60;1.00
33903;DHT22;20194;50.950;5.346;2023-02-28T12:26:36;6.70;99.90
33903;DHT22;20194;50.950;5.346;2023-02-28T12:29:16;6.30;3.50
33903;DHT22;20194;50.950;5.346;2023-02-28T12:32:01;6.40;99.90
33903;DHT22;20194;50.950;5.346;2023-02-28T12:34:42;6.50;1.00
33903;DHT22;20194;50.950;5.346;2023-02-28T12:37:22;6.70;99.90
33903;DHT22;20194;50.950;5.346;2023-02-28T12:39:55;6.70;1.00
33903;DHT22;20194;50.950;5.346;2023-02-28T12:42:29;6.70;1.00
33903;DHT22;20194;50.950;5.346;2023-02-28T12:44:59;6.90;1.00
33903;DHT22;20194;50.950;5.346;2023-02-28T12:47:26;7.00;1.00
33903;DHT22;20194;50.950;5.346;2023-02-28T13:05:22;6.50;99.90
33903;DHT22;20194;50.950;5.346;2023-02-28T13:10:57;6.60;1.00
33903;DHT22;20194;50.950;5.346;2023-02-28T13:13:28;6.40;99.90
33903;DHT22;20194;50.950;5.346;2023-02-28T13:16:03;6.50;1.00
33903;DHT22;20194;50.950;5.346;2023-02-28T13:18:37;6.40;99.90
33903;DHT22;20194;50.950;5.346;2023-02-28T13:21:23;6.50;99.90
33903;DHT22;20194;50.950;5.346;2023-02-28T13:34:35;6.30;99.90
33903;DHT22;20194;50.950;5.346;2023-02-28T13:39:57;6.50;1.00
33903;DHT22;20194;50.950;5.346;2023-02-28T13:48:23;6.20;1.00
33903;DHT22;20194;50.950;5.346;2023-02-28T14:07:22;6.30;99.90
33903;DHT22;20194;50.950;5.346;2023-02-28T14:10:05;6.30;1.00
33903;DHT22;20194;50.950;5.346;2023-02-28T14:12:59;6.30;99.90
33903;DHT22;20194;50.950;5.346;2023-02-28T14:18:33;6.30;99.90
33903;DHT22;20194;50.950;5.346;2023-02-28T14:21:26;6.40;99.90
33903;DHT22;20194;50.950;5.346;2023-02-28T14:32:54;6.40;99.90
33903;DHT22;20194;50.950;5.346;2023-02-28T14:38:31;6.30;99.90
33903;DHT22;20194;50.950;5.346;2023-02-28T14:41:00;6.40;1.00
33903;DHT22;20194;50.950;5.346;2023-02-28T14:43:28;6.40;1.00
33903;DHT22;20194;50.950;5.346;2023-02-28T14:46:00;6.30;99.90
33903;DHT22;20194;50.950;5.346;2023-02-28T14:48:26;6.30;99.90
33903;DHT22;20194;50.950;5.346;2023-02-28T14:50:55;6.20;1.00
33903;DHT22;20194;50.950;5.346;2023-02-28T14:53:24;6.20;99.90
33903;DHT22;20194;50.950;5.346;2023-02-28T14:55:51;6.10;99.90
33903;DHT22;20194;50.950;5.346;2023-02-28T15:00:52;6.10;1.00
33903;DHT22;20194;50.950;5.346;2023-02-28T15:03:30;6.00;1.00
33903;DHT22;20194;50.950;5.346;2023-02-28T15:05:59;6.00;99.90
33903;DHT22;20194;50.950;5.346;2023-02-28T15:08:26;6.10;1.00
33903;DHT22;20194;50.950;5.346;2023-02-28T15:13:51;6.20;1.00
33903;DHT22;20194;50.950;5.346;2023-02-28T15:16:25;6.30;99.90
33903;DHT22;20194;50.950;5.346;2023-02-28T15:18:59;6.20;99.90
33903;DHT22;20194;50.950;5.346;2023-02-28T15:21:28;6.20;1.00
33903;DHT22;20194;50.950;5.346;2023-02-28T15:24:14;6.00;99.90
33903;DHT22;20194;50.950;5.346;2023-02-28T15:26:46;6.10;1.00
33903;DHT22;20194;50.950;5.346;2023-02-28T15:29:20;6.20;1.00
33903;DHT22;20194;50.950;5.346;2023-02-28T15:31:57;6.20;99.90
33903;DHT22;20194;50.950;5.346;2023-02-28T15:34:26;6.20;1.00
33903;DHT22;20194;50.950;5.346;2023-02-28T15:36:53;6.20;1.00
33903;DHT22;20194;50.950;5.346;2023-02-28T15:39:24;6.20;1.00
33903;DHT22;20194;50.950;5.346;2023-02-28T15:41:50;6.20;99.90
33903;DHT22;20194;50.950;5.346;2023-02-28T15:44:27;6.10;20.20
33903;DHT22;20194;50.950;5.346;2023-02-28T15:54:52;6.10;99.90
33903;DHT22;20194;50.950;5.346;2023-02-28T15:57:22;6.00;1.00
33903;DHT22;20194;50.950;5.346;2023-02-28T15:59:55;6.00;99.90
33903;DHT22;20194;50.950;5.346;2023-02-28T16:02:41;6.00;99.90
33903;DHT22;20194;50.950;5.346;2023-02-28T16:07:38;6.10;1.00
33903;DHT22;20194;50.950;5.346;2023-02-28T16:10:05;6.10;1.00
33903;DHT22;20194;50.950;5.346;2023-02-28T16:12:34;6.10;99.90
33903;DHT22;20194;50.950;5.346;2023-02-28T16:15:02;6.10;99.90
33903;DHT22;20194;50.950;5.346;2023-02-28T16:17:33;6.20;1.00
33903;DHT22;20194;50.950;5.346;2023-02-28T16:19:59;6.10;99.90
33903;DHT22;20194;50.950;5.346;2023-02-28T16:22:25;6.00;99.90
33903;DHT22;20194;50.950;5.346;2023-02-28T16:24:51;6.00;99.90
33903;DHT22;20194;50.950;5.346;2023-02-28T16:27:21;5.90;99.90
33903;DHT22;20194;50.950;5.346;2023-02-28T16:29:51;5.90;1.00
33903;DHT22;20194;50.950;5.346;2023-02-28T16:32:17;5.90;54.90
33903;DHT22;20194;50.950;5.346;2023-02-28T16:34:43;5.90;99.90
33903;DHT22;20194;50.950;5.346;2023-02-28T16:37:12;5.80;1.00
33903;DHT22;20194;50.950;5.346;2023-02-28T16:39:38;5.80;99.90
33903;DHT22;20194;50.950;5.346;2023-02-28T16:42:13;5.80;1.00
33903;DHT22;20194;50.950;5.346;2023-02-28T16:44:40;6.00;99.90
33903;DHT22;20194;50.950;5.346;2023-02-28T16:47:06;6.00;99.90
33903;DHT22;20194;50.950;5.346;2023-02-28T16:49:31;5.90;99.90
33903;DHT22;20194;50.950;5.346;2023-02-28T16:51:57;5.80;1.00
33903;DHT22;20194;50.950;5.346;2023-02-28T16:54:23;5.70;1.00
33903;DHT22;20194;50.950;5.346;2023-02-28T16:56:49;5.70;1.00
33903;DHT22;20194;50.950;5.346;2023-02-28T16:59:24;5.80;1.00
33903;DHT22;20194;50.950;5.346;2023-02-28T17:01:50;5.80;1.00
33903;DHT22;20194;50.950;5.346;2023-02-28T17:04:17;5.70;99.90
33903;DHT22;20194;50.950;5.346;2023-02-28T17:06:43;5.70;1.00
33903;DHT22;20194;50.950;5.346;2023-02-28T17:09:16;5.80;1.00
33903;DHT22;20194;50.950;5.346;2023-02-28T17:11:43;5.80;1.00
33903;DHT22;20194;50.950;5.346;2023-02-28T17:14:09;5.90;1.00
33903;DHT22;20194;50.950;5.346;2023-02-28T17:16:36;5.90;99.90
33903;DHT22;20194;50.950;5.346;2023-02-28T17:19:07;5.90;99.90
33903;DHT22;20194;50.950;5.346;2023-02-28T17:21:36;6.00;99.90
33903;DHT22;20194;50.950;5.346;2023-02-28T17:24:02;6.10;1.00
33903;DHT22;20194;50.950;5.346;2023-02-28T17:26:28;6.20;1.00
33903;DHT22;20194;50.950;5.346;2023-02-28T17:28:55;6.40;99.90
33903;DHT22;20194;50.950;5.346;2023-02-28T17:31:26;6.30;77.70
33903;DHT22;20194;50.950;5.346;2023-02-28T17:33:52;6.50;68.10
33903;DHT22;20194;50.950;5.346;2023-02-28T17:36:25;6.30;1.00
33903;DHT22;20194;50.950;5.346;2023-02-28T17:38:53;6.40;1.00
33903;DHT22;20194;50.950;5.346;2023-02-28T17:41:20;6.50;1.00
33903;DHT22;20194;50.950;5.346;2023-02-28T17:43:46;6.50;1.00
33903;DHT22;20194;50.950;5.346;2023-02-28T17:46:20;6.60;1.00
33903;DHT22;20194;50.950;5.346;2023-02-28T17:48:51;6.50;1.00
33903;DHT22;20194;50.950;5.346;2023-02-28T17:51:20;6.50;1.00
33903;DHT22;20194;50.950;5.346;2023-02-28T17:53:46;6.50;1.00
33903;DHT22;20194;50.950;5.346;2023-02-28T17:56:24;6.50;99.90
33903;DHT22;20194;50.950;5.346;2023-02-28T17:58:54;6.50;1.00
33903;DHT22;20194;50.950;5.346;2023-02-28T18:01:21;6.60;1.00
33903;DHT22;20194;50.950;5.346;2023-02-28T18:03:48;6.60;1.70
33903;DHT22;20194;50.950;5.346;2023-02-28T18:09:20;6.60;99.90
33903;DHT22;20194;50.950;5.346;2023-02-28T18:11:53;6.50;99.90
33903;DHT22;20194;50.950;5.346;2023-02-28T18:14:22;6.50;99.90
33903;DHT22;20194;50.950;5.346;2023-02-28T18:16:49;6.40;99.90
33903;DHT22;20194;50.950;5.346;2023-02-28T18:19:16;6.40;1.00
33903;DHT22;20194;50.950;5.346;2023-02-28T18:21:47;6.30;1.00
33903;DHT22;20194;50.950;5.346;2023-02-28T18:24:14;6.30;1.00
33903;DHT22;20194;50.950;5.346;2023-02-28T18:26:40;6.20;99.90
33903;DHT22;20194;50.950;5.346;2023-02-28T18:29:07;6.00;99.90
33903;DHT22;20194;50.950;5.346;2023-02-28T18:31:33;6.00;99.90
33903;DHT22;20194;50.950;5.346;2023-02-28T18:34:00;6.00;99.90
33903;DHT22;20194;50.950;5.346;2023-02-28T18:36:26;6.00;99.90
33903;DHT22;20194;50.950;5.346;2023-02-28T18:38:52;6.00;99.90
33903;DHT22;20194;50.950;5.346;2023-02-28T18:41:19;5.80;1.00
33903;DHT22;20194;50.950;5.346;2023-02-28T18:43:48;5.50;1.00
33903;DHT22;20194;50.950;5.346;2023-02-28T18:46:16;5.40;99.90
33903;DHT22;20194;50.950;5.346;2023-02-28T18:48:42;5.40;99.90
33903;DHT22;20194;50.950;5.346;2023-02-28T18:51:11;5.40;99.90
33903;DHT22;20194;50.950;5.346;2023-02-28T18:53:38;5.40;99.90
33903;DHT22;20194;50.950;5.346;2023-02-28T18:56:05;5.30;99.90
33903;DHT22;20194;50.950;5.346;2023-02-28T18:58:32;5.40;99.90